Time;durP1;ratioP1;P1;durP2;ratioP2;P2;SDS_P1;SDS_P2;PMS_P1;PMS_P2;Temp;Humidity;BMP_temperature;BMP_pressure;BME280_temperature;BME280_humidity;BME280_pressure;Samples;Min_cycle;Max_cycle;Signal;HPM_P1;HPM_P2
2023/03/20 00:01:59;;;;;;;27.67;16.30;;;;;;;9.02;68.21;99959.63;5033690;28;20188;-70
2023/03/20 00:04:26;;;;;;;31.23;17.23;;;;;;;8.90;68.41;99955.75;5033300;28;20188;-71
2023/03/20 00:06:54;;;;;;;30.50;17.13;;;;;;;8.73;69.13;99956.81;5032597;28;20267;-70
2023/03/20 00:09:21;;;;;;;25.57;16.13;;;;;;;8.49;69.86;99951.63;5032758;28;20201;-70
2023/03/20 00:11:50;;;;;;;29.53;17.33;;;;;;;8.27;70.73;99949.72;5032483;28;20662;-70
2023/03/20 00:14:19;;;;;;;28.47;16.80;;;;;;;8.13;71.73;99943.25;5032308;28;20219;-70
2023/03/20 00:16:48;;;;;;;24.33;15.70;;;;;;;7.96;71.71;99936.34;5032600;28;20196;-70
2023/03/20 00:19:17;;;;;;;24.13;16.13;;;;;;;7.84;71.79;99926.31;5032517;28;20274;-71
2023/03/20 00:21:44;;;;;;;35.13;15.80;;;;;;;7.92;72.06;99928.94;5032427;28;20653;-69
2023/03/20 00:24:11;;;;;;;22.63;14.77;;;;;;;7.94;72.88;99929.59;5032510;28;20189;-69
2023/03/20 00:26:38;;;;;;;25.00;16.17;;;;;;;8.01;72.51;99933.22;5032395;28;20351;-69
2023/03/20 00:29:06;;;;;;;25.47;15.10;;;;;;;8.07;72.69;99937.81;5032846;28;20198;-70
2023/03/20 00:31:35;;;;;;;23.47;15.30;;;;;;;8.00;72.88;99934.22;5033057;28;20196;-70
2023/03/20 00:34:05;;;;;;;26.57;15.43;;;;;;;8.07;71.66;99929.88;5032607;28;20192;-70
2023/03/20 00:36:32;;;;;;;26.23;15.10;;;;;;;8.01;72.14;99933.22;5032060;28;20189;-70
2023/03/20 00:39:00;;;;;;;24.70;15.77;;;;;;;8.02;72.14;99926.94;5032294;28;20251;-70
2023/03/20 00:41:30;;;;;;;25.10;15.17;;;;;;;8.06;72.36;99920.31;5032318;28;20193;-70
2023/03/20 00:44:01;;;;;;;24.00;15.77;;;;;;;8.13;71.95;99923.94;5032264;28;20193;-70
2023/03/20 00:46:29;;;;;;;21.77;15.80;;;;;;;8.10;71.15;99916.31;5032584;28;20213;-70
2023/03/20 00:48:56;;;;;;;22.17;15.10;;;;;;;8.12;71.49;99923.09;5032088;28;20189;-70
2023/03/20 00:51:24;;;;;;;21.87;15.13;;;;;;;8.06;71.88;99915.00;5033049;28;20184;-70
2023/03/20 00:53:51;;;;;;;21.23;14.47;;;;;;;8.12;72.12;99920.44;5031979;28;20196;-70
2023/03/20 00:56:33;;;;;;;26.10;15.23;;;;;;;8.15;71.30;99914.81;5031801;28;20615;-69
2023/03/20 00:59:01;;;;;;;22.23;14.43;;;;;;;8.13;71.12;99913.34;5032389;28;20646;-70
2023/03/20 01:01:28;;;;;;;24.10;15.47;;;;;;;8.13;72.26;99911.50;5031873;28;20719;-70
2023/03/20 01:03:55;;;;;;;23.00;14.73;;;;;;;8.13;71.04;99905.41;5031771;28;20189;-69
2023/03/20 01:06:22;;;;;;;21.67;15.13;;;;;;;8.19;71.37;99915.31;5032006;28;20235;-70
2023/03/20 01:08:50;;;;;;;24.07;14.77;;;;;;;8.17;72.01;99917.31;5032579;28;20221;-69
2023/03/20 01:11:21;;;;;;;22.17;14.23;;;;;;;8.21;70.82;99918.66;5031936;28;20195;-70
2023/03/20 01:13:48;;;;;;;25.63;15.57;;;;;;;8.22;71.39;99904.41;5031752;28;20695;-69
2023/03/20 01:16:21;;;;;;;20.53;14.57;;;;;;;8.26;70.55;99905.72;5031883;28;20193;-69
2023/03/20 01:18:48;;;;;;;19.77;14.50;;;;;;;8.21;70.64;99902.78;5032589;28;20219;-69
2023/03/20 01:21:15;;;;;;;22.37;14.43;;;;;;;8.00;71.64;99882.13;5031560;28;20251;-69
2023/03/20 01:23:42;;;;;;;23.53;15.60;;;;;;;8.09;71.38;99898.81;5031556;28;20197;-69
2023/03/20 01:26:21;;;;;;;26.03;15.30;;;;;;;8.03;72.40;99899.47;5031698;28;20217;-69
2023/03/20 01:28:48;;;;;;;20.57;14.50;;;;;;;8.05;71.42;99897.50;5032561;28;20266;-69
2023/03/20 01:31:17;;;;;;;21.43;15.17;;;;;;;8.05;71.83;99897.50;5035626;28;20189;-69
2023/03/20 01:33:43;;;;;;;20.73;14.27;;;;;;;8.06;71.95;99899.16;5035247;28;20194;-69
2023/03/20 01:36:11;;;;;;;27.20;15.63;;;;;;;7.99;71.77;99898.16;5035488;28;20209;-69
2023/03/20 01:38:39;;;;;;;21.03;14.93;;;;;;;7.96;72.26;99883.47;5036286;28;20193;-69
2023/03/20 01:41:09;;;;;;;19.47;14.77;;;;;;;8.04;71.19;99890.56;5035393;28;20195;-69
2023/03/20 01:43:38;;;;;;;24.57;15.37;;;;;;;8.03;70.92;99891.53;5036343;28;20240;-69
2023/03/20 01:46:16;;;;;;;20.93;14.80;;;;;;;8.06;70.93;99899.16;5035030;28;20692;-69
2023/03/20 01:48:59;;;;;;;20.97;14.10;;;;;;;7.93;71.85;99893.56;5035921;28;20582;-69
2023/03/20 01:51:28;;;;;;;19.27;13.37;;;;;;;7.91;72.31;99887.59;5035971;28;20257;-67
2023/03/20 01:53:59;;;;;;;18.90;13.60;;;;;;;7.79;72.16;99887.16;5034914;28;20541;-69
2023/03/20 01:56:29;;;;;;;21.40;13.97;;;;;;;7.75;72.44;99879.72;5035433;28;20590;-68
2023/03/20 01:59:00;;;;;;;19.33;12.43;;;;;;;7.68;72.54;99882.19;5034800;28;20738;-69
2023/03/20 02:01:28;;;;;;;13.70;11.23;;;;;;;7.59;72.39;99890.34;5035910;28;20181;-69
2023/03/20 02:03:56;;;;;;;19.40;12.53;;;;;;;7.52;72.80;99884.06;5034720;28;20664;-68
2023/03/20 02:06:25;;;;;;;21.10;11.53;;;;;;;7.52;72.66;99886.69;5034558;28;20212;-69
2023/03/20 02:08:53;;;;;;;23.10;13.93;;;;;;;7.49;72.90;99884.38;5035118;28;20209;-69
2023/03/20 02:11:23;;;;;;;24.43;15.20;;;;;;;7.48;72.83;99882.75;5034838;28;20247;-69
2023/03/20 02:13:52;;;;;;;30.77;14.03;;;;;;;7.43;73.20;99879.78;5035469;28;20189;-68
2023/03/20 02:16:20;;;;;;;27.60;14.00;;;;;;;7.48;73.66;99888.03;5034787;28;20193;-68
2023/03/20 02:18:49;;;;;;;28.93;14.27;;;;;;;7.47;73.74;99879.25;5034698;28;20193;-68
2023/03/20 02:21:51;;;;;;;27.27;14.30;;;;;;;7.49;73.29;99884.38;5034942;28;20647;-69
2023/03/20 02:25:04;;;;;;;24.00;13.03;;;;;;;7.54;72.61;99890.00;5035527;28;20185;-68
2023/03/20 02:27:38;;;;;;;20.70;14.37;;;;;;;7.46;73.23;99888.19;5035403;28;20203;-69
2023/03/20 02:30:36;;;;;;;22.13;13.93;;;;;;;7.47;73.11;99875.81;5035401;28;20184;-69
2023/03/20 02:33:43;;;;;;;23.57;14.17;;;;;;;7.49;72.29;99879.09;5035337;28;20185;-69
2023/03/20 02:36:46;;;;;;;24.03;13.63;;;;;;;7.48;72.83;99872.97;5035328;28;20290;-71
2023/03/20 02:39:55;;;;;;;19.80;13.63;;;;;;;7.48;73.39;99874.81;5034915;28;20185;-70
2023/03/20 02:42:32;;;;;;;19.73;13.20;;;;;;;7.51;72.80;99870.00;5034819;28;20185;-70
2023/03/20 02:45:08;;;;;;;20.90;13.67;;;;;;;7.38;72.45;99845.06;5033995;28;20181;-70
2023/03/20 02:47:41;;;;;;;19.83;13.23;;;;;;;7.54;72.49;99868.84;5034360;28;20558;-69
2023/03/20 02:50:16;;;;;;;18.43;13.17;;;;;;;7.54;73.01;99871.50;5034230;28;20251;-69
2023/03/20 02:52:49;;;;;;;24.07;14.03;;;;;;;7.54;73.19;99869.69;5033901;28;20729;-69
2023/03/20 02:55:26;;;;;;;17.13;12.73;;;;;;;7.51;73.26;99869.19;5034402;28;20607;-69
2023/03/20 02:58:02;;;;;;;16.07;12.43;;;;;;;7.50;72.92;99870.16;5033867;28;20257;-68
2023/03/20 03:00:34;;;;;;;19.83;13.63;;;;;;;7.48;73.41;99872.97;5034524;28;20224;-69
2023/03/20 03:03:09;;;;;;;14.63;12.33;;;;;;;7.39;73.60;99867.88;5035149;28;20221;-69
2023/03/20 03:05:40;;;;;;;20.17;12.90;;;;;;;7.40;74.15;99869.53;5034718;28;20314;-69
2023/03/20 03:08:12;;;;;;;15.77;12.73;;;;;;;7.40;74.27;99865.09;5033546;28;20604;-70
2023/03/20 03:10:44;;;;;;;19.03;12.60;;;;;;;7.36;73.66;99857.66;5034131;28;20215;-70
2023/03/20 03:13:15;;;;;;;15.43;12.90;;;;;;;7.36;74.12;99865.56;5034241;28;20193;-70
2023/03/20 03:15:46;;;;;;;18.73;12.50;;;;;;;7.32;74.20;99858.97;5033329;28;20255;-71
2023/03/20 03:18:16;;;;;;;15.47;13.20;;;;;;;7.22;74.91;99866.25;5034456;28;20189;-70
2023/03/20 03:20:45;;;;;;;18.70;13.97;;;;;;;7.11;74.65;99864.75;5033304;28;20239;-70
2023/03/20 03:23:21;;;;;;;22.40;13.80;;;;;;;7.03;76.21;99858.66;5033249;28;20189;-69
2023/03/20 03:25:50;;;;;;;17.63;13.57;;;;;;;7.03;75.46;99866.56;5033977;28;20240;-69
2023/03/20 03:28:26;;;;;;;16.80;13.60;;;;;;;6.93;75.43;99863.25;5033671;28;20188;-71
2023/03/20 03:30:54;;;;;;;17.60;13.83;;;;;;;6.75;76.97;99852.84;5033889;28;20189;-71
2023/03/20 03:33:23;;;;;;;17.43;13.70;;;;;;;6.80;76.81;99876.09;5033366;28;20186;-71
2023/03/20 03:35:54;;;;;;;18.40;13.53;;;;;;;6.70;76.29;99859.59;5033573;28;20193;-71
2023/03/20 03:38:31;;;;;;;16.97;13.67;;;;;;;6.67;76.74;99863.38;5032966;28;20189;-71
2023/03/20 03:41:13;;;;;;;20.83;13.63;;;;;;;6.55;77.81;99866.47;5034053;28;20188;-71
2023/03/20 03:43:45;;;;;;;20.70;13.17;;;;;;;6.58;77.96;99871.44;5032962;28;20637;-72
2023/03/20 03:46:17;;;;;;;18.33;12.80;;;;;;;6.57;77.70;99870.63;5032994;28;20545;-72
2023/03/20 03:48:48;;;;;;;20.13;14.23;;;;;;;6.51;76.97;99866.00;5033263;28;20197;-71
2023/03/20 03:51:18;;;;;;;20.57;14.37;;;;;;;6.32;78.31;99850.44;5032416;28;20177;-71
2023/03/20 03:53:49;;;;;;;16.23;12.80;;;;;;;6.42;78.03;99871.41;5033100;28;20247;-71
2023/03/20 03:56:23;;;;;;;18.07;14.00;;;;;;;6.26;77.88;99851.09;5032718;28;20644;-72
2023/03/20 03:58:55;;;;;;;20.50;14.17;;;;;;;6.24;78.62;99862.78;5032958;28;20293;-72
2023/03/20 04:01:24;;;;;;;16.07;12.40;;;;;;;6.18;78.26;99874.78;5032535;28;20652;-72
2023/03/20 04:03:55;;;;;;;22.07;12.73;;;;;;;6.09;78.46;99877.53;5033101;28;20197;-71
2023/03/20 04:06:23;;;;;;;16.27;12.47;;;;;;;6.03;78.57;99870.25;5032858;28;20217;-71
2023/03/20 04:08:51;;;;;;;19.00;12.33;;;;;;;5.92;78.69;99870.53;5032430;28;20565;-71
2023/03/20 04:11:21;;;;;;;14.73;12.67;;;;;;;5.96;79.41;99880.59;5031636;28;20201;-71
2023/03/20 04:13:50;;;;;;;17.40;13.40;;;;;;;5.97;78.72;99876.16;5053426;28;20192;-71
2023/03/20 04:16:18;;;;;;;24.20;13.43;;;;;;;5.89;78.42;99870.84;5052593;28;20705;-71
2023/03/20 04:18:46;;;;;;;16.33;13.67;;;;;;;5.92;78.87;99857.38;5052529;28;20246;-70
2023/03/20 04:21:14;;;;;;;18.23;12.53;;;;;;;6.01;78.47;99869.59;5052634;28;20193;-70
2023/03/20 04:23:41;;;;;;;16.87;12.57;;;;;;;5.98;78.07;99867.25;5052028;28;20188;-71
2023/03/20 04:26:08;;;;;;;25.87;13.47;;;;;;;6.01;77.10;99869.59;5052198;28;20196;-73
2023/03/20 04:28:36;;;;;;;16.10;12.43;;;;;;;6.09;77.66;99872.28;5052015;28;20184;-72
2023/03/20 04:31:03;;;;;;;20.73;13.50;;;;;;;6.15;77.83;99864.56;5053024;28;20253;-72
2023/03/20 04:33:30;;;;;;;20.27;13.77;;;;;;;6.16;77.17;99875.94;5052749;28;20189;-75
2023/03/20 04:35:57;;;;;;;23.93;13.47;;;;;;;6.17;78.18;99861.75;5052589;28;20188;-73
2023/03/20 04:38:25;;;;;;;25.30;14.03;;;;;;;6.27;77.82;99873.00;5051879;28;20194;-72
2023/03/20 04:40:52;;;;;;;23.47;14.33;;;;;;;6.27;77.39;99868.56;5052704;28;20192;-70
2023/03/20 04:43:21;;;;;;;18.20;14.63;;;;;;;6.15;77.71;99869.81;5052364;28;20239;-73
2023/03/20 04:45:49;;;;;;;27.23;13.97;;;;;;;6.19;78.65;99870.31;5052342;28;20239;-73
2023/03/20 04:48:16;;;;;;;20.10;13.73;;;;;;;6.25;78.45;99872.34;5052491;28;20542;-73
2023/03/20 04:50:45;;;;;;;21.00;12.70;;;;;;;6.32;78.71;99868.09;5051989;28;20207;-73
2023/03/20 04:53:12;;;;;;;18.23;12.53;;;;;;;6.36;78.98;99861.50;5052026;28;20192;-71
2023/03/20 04:55:39;;;;;;;25.40;13.30;;;;;;;6.73;79.21;99877.75;5051989;28;20246;-71
2023/03/20 04:58:05;;;;;;;33.93;14.27;;;;;;;7.08;77.44;99880.09;5052252;28;20254;-71
2023/03/20 05:00:32;;;;;;;24.50;13.37;;;;;;;7.46;75.36;99882.06;5052202;28;20742;-71
2023/03/20 05:03:00;;;;;;;34.10;14.13;;;;;;;7.87;74.19;99894.22;5052100;28;20196;-71
2023/03/20 05:05:28;;;;;;;20.00;13.00;;;;;;;8.21;72.18;99894.84;5055416;28;20662;-71
2023/03/20 05:07:55;;;;;;;25.63;13.10;;;;;;;8.55;70.90;99890.03;5055850;28;20222;-70
2023/03/20 05:10:21;;;;;;;23.20;12.37;;;;;;;8.82;69.25;99894.88;5055903;28;20201;-70
2023/03/20 05:12:48;;;;;;;30.20;12.60;;;;;;;9.13;68.19;99904.41;5055927;28;20196;-70
2023/03/20 05:15:15;;;;;;;43.40;13.77;;;;;;;9.46;66.66;99899.66;5055466;28;20245;-70
2023/03/20 05:17:42;;;;;;;18.87;12.00;;;;;;;9.79;64.10;99908.97;5056493;28;20189;-69
2023/03/20 05:20:11;;;;;;;17.23;11.60;;;;;;;9.95;65.84;99903.50;5055866;28;20253;-70
2023/03/20 05:22:37;;;;;;;18.70;12.17;;;;;;;10.01;64.25;99910.75;5055241;28;20717;-69
2023/03/20 05:25:05;;;;;;;25.53;11.93;;;;;;;10.07;64.40;99907.38;5055722;28;20262;-68
2023/03/20 05:27:32;;;;;;;26.87;12.90;;;;;;;10.43;62.43;99909.13;5055423;28;20227;-68
2023/03/20 05:33:20;;;;;;;23.37;11.67;;;;;;;10.79;61.00;99903.84;5055446;28;20168;-68
2023/03/20 05:35:48;;;;;;;16.27;10.17;;;;;;;10.76;60.81;99909.53;5055230;28;20220;-67
2023/03/20 05:38:15;;;;;;;14.50;11.13;;;;;;;10.77;60.24;99901.38;5055222;28;20204;-68
2023/03/20 05:40:41;;;;;;;13.87;10.53;;;;;;;10.80;60.79;99906.31;5055527;28;20203;-70
2023/03/20 05:43:08;;;;;;;20.47;11.10;;;;;;;10.69;60.93;99905.97;5055645;28;20249;-67
2023/03/20 05:45:35;;;;;;;19.60;10.57;;;;;;;10.77;69.67;99895.22;5054800;28;20189;-75
2023/03/20 05:48:02;;;;;;;27.27;11.83;;;;;;;10.66;63.14;99904.50;5054687;28;20216;-74
2023/03/20 05:50:29;;;;;;;13.40;10.10;;;;;;;10.97;61.45;99906.91;5055183;28;20188;-68
2023/03/20 05:52:57;;;;;;;27.73;11.57;;;;;;;11.20;60.37;99902.25;5054756;28;20660;-68
2023/03/20 05:55:23;;;;;;;24.53;11.50;;;;;;;11.52;60.28;99907.03;5055750;28;20610;-67
2023/03/20 05:57:50;;;;;;;16.70;10.43;;;;;;;12.01;62.05;99891.03;5055320;28;20614;-74
2023/03/20 06:00:18;;;;;;;9.93;6.73;;;;;;;13.87;77.36;99877.59;5055267;28;20221;-68
2023/03/20 06:02:45;;;;;;;27.27;9.23;;;;;;;15.57;65.28;99899.09;5055465;28;20342;-67
2023/03/20 06:05:11;;;;;;;37.20;10.17;;;;;;;16.34;63.81;99885.16;5054712;28;20195;-67
2023/03/20 06:07:38;;;;;;;15.97;8.23;;;;;;;17.65;59.34;99895.78;5054802;28;20216;-69
2023/03/20 06:10:07;;;;;;;18.30;9.30;;;;;;;18.43;52.42;99899.75;5054401;28;20197;-67
2023/03/20 06:12:34;;;;;;;25.00;12.60;;;;;;;18.11;39.46;99896.63;5053321;28;20194;-70
2023/03/20 06:15:01;;;;;;;19.27;13.10;;;;;;;18.14;39.44;99895.31;5051988;28;20605;-69
2023/03/20 06:17:27;;;;;;;20.87;11.80;;;;;;;18.13;39.16;99882.94;5054163;28;20197;-67
2023/03/20 06:19:54;;;;;;;23.53;11.57;;;;;;;17.83;42.26;99887.59;5052830;28;20193;-67
2023/03/20 06:22:21;;;;;;;32.17;12.83;;;;;;;17.85;40.18;99886.31;5054309;28;20279;-69
2023/03/20 06:24:48;;;;;;;22.33;12.10;;;;;;;17.82;38.99;99894.03;5054207;28;20652;-69
2023/03/20 06:27:16;;;;;;;15.67;11.40;;;;;;;17.85;39.17;99896.25;5053818;28;20219;-68
2023/03/20 06:29:42;;;;;;;21.03;11.60;;;;;;;17.18;39.81;99880.56;5054611;28;20628;-66
2023/03/20 06:32:11;;;;;;;13.40;10.73;;;;;;;17.43;40.86;99895.50;5054029;28;20188;-69
2023/03/20 06:34:38;;;;;;;16.83;10.30;;;;;;;17.67;40.53;99885.59;5053898;28;20199;-70
2023/03/20 06:37:05;;;;;;;24.17;10.93;;;;;;;17.76;40.57;99887.72;5053984;28;20193;-69
2023/03/20 06:39:31;;;;;;;19.10;10.97;;;;;;;17.67;39.07;99894.50;5039481;28;20201;-69
2023/03/20 06:41:58;;;;;;;33.23;15.40;;;;;;;17.33;39.54;99889.00;5032689;28;20191;-70
2023/03/20 06:44:26;;;;;;;18.57;13.07;;;;;;;17.01;41.71;99882.25;5033935;28;20727;-70
2023/03/20 06:46:53;;;;;;;23.43;11.40;;;;;;;17.12;40.88;99884.16;5034142;28;20189;-70
2023/03/20 06:49:20;;;;;;;77.63;15.53;;;;;;;17.36;41.45;99885.88;5033864;28;20189;-70
2023/03/20 06:51:47;;;;;;;25.20;11.80;;;;;;;17.53;40.79;99892.25;5033934;28;20194;-70
2023/03/20 06:54:15;;;;;;;22.00;12.77;;;;;;;17.71;40.17;99882.22;5033589;28;20647;-70
2023/03/20 06:56:41;;;;;;;23.60;11.97;;;;;;;17.93;39.93;99882.47;5033754;28;20257;-70
2023/03/20 06:59:08;;;;;;;109.73;16.23;;;;;;;17.96;39.80;99881.97;5033750;28;20227;-70
2023/03/20 07:01:36;;;;;;;17.13;11.33;;;;;;;17.38;40.28;99879.22;5065929;28;20187;-70
2023/03/20 07:04:03;;;;;;;22.83;11.10;;;;;;;17.27;41.20;99881.88;5073807;28;20600;-70
2023/03/20 07:06:30;;;;;;;10.07;9.00;;;;;;;17.45;42.29;99884.53;5073692;28;20186;-70
2023/03/20 07:08:56;;;;;;;18.70;10.40;;;;;;;17.60;40.26;99876.84;5073683;28;20274;-70
2023/03/20 07:11:23;;;;;;;15.20;10.40;;;;;;;17.75;42.74;99875.34;5073331;28;20646;-69
2023/03/20 07:13:50;;;;;;;14.30;10.63;;;;;;;18.04;40.29;99881.63;5073618;28;20188;-70
2023/03/20 07:16:16;;;;;;;30.73;10.33;;;;;;;18.32;42.05;99881.72;5073266;28;20221;-70
2023/03/20 07:18:44;;;;;;;17.97;9.57;;;;;;;18.55;40.07;99887.09;5073109;28;20195;-70
2023/03/20 07:21:17;;;;;;;16.40;10.80;;;;;;;18.79;38.16;99886.00;5072821;28;20615;-70
2023/03/20 07:23:43;;;;;;;11.70;10.53;;;;;;;18.77;39.04;99880.00;5074533;28;20639;-70
2023/03/20 07:26:11;;;;;;;19.70;10.47;;;;;;;18.94;38.65;99891.66;5072849;28;20188;-70
2023/03/20 07:28:37;;;;;;;16.13;10.57;;;;;;;18.77;39.21;99880.00;5073245;28;20215;-70
2023/03/20 07:31:04;;;;;;;13.83;10.93;;;;;;;18.49;39.83;99872.72;5072998;28;20246;-70
2023/03/20 07:33:31;;;;;;;23.60;11.47;;;;;;;18.72;40.05;99869.16;5074065;28;20272;-70
2023/03/20 07:36:00;;;;;;;15.83;11.07;;;;;;;18.90;38.44;99868.97;5073263;28;20188;-70
2023/03/20 07:38:26;;;;;;;18.23;10.63;;;;;;;19.07;37.87;99859.06;5072792;28;20191;-70
2023/03/20 07:40:54;;;;;;;14.23;10.37;;;;;;;19.34;37.09;99860.09;5072824;28;20722;-70
2023/03/20 07:43:22;;;;;;;14.07;11.33;;;;;;;19.54;37.03;99855.88;5072723;28;20279;-68
2023/03/20 07:45:48;;;;;;;14.53;10.97;;;;;;;19.75;36.38;99859.69;5072399;28;20246;-70
2023/03/20 07:48:15;;;;;;;17.40;11.43;;;;;;;19.94;35.99;99864.56;5073472;28;20236;-70
2023/03/20 07:50:42;;;;;;;15.47;11.33;;;;;;;20.07;35.55;99864.25;5072748;28;20239;-70
2023/03/20 07:53:10;;;;;;;13.07;10.47;;;;;;;20.01;37.13;99861.72;5072380;28;20717;-70
2023/03/20 07:55:36;;;;;;;13.90;12.07;;;;;;;19.72;35.59;99862.88;5072783;28;20249;-70
2023/03/20 07:58:03;;;;;;;14.77;10.73;;;;;;;19.85;37.54;99851.78;5072736;28;20708;-70
2023/03/20 08:00:30;;;;;;;11.30;10.20;;;;;;;20.09;35.94;99851.34;5058981;28;20282;-70
2023/03/20 08:02:57;;;;;;;13.03;11.40;;;;;;;20.29;35.42;99848.94;5052383;28;20536;-70
2023/03/20 08:05:24;;;;;;;19.73;11.63;;;;;;;20.43;34.80;99854.78;5052913;28;20581;-69
2023/03/20 08:07:50;;;;;;;25.90;12.07;;;;;;;20.51;34.40;99844.34;5052130;28;20642;-70
2023/03/20 08:10:18;;;;;;;17.10;11.80;;;;;;;20.43;35.68;99843.97;5052413;28;20192;-70
2023/03/20 08:12:45;;;;;;;13.47;12.10;;;;;;;20.62;34.71;99852.56;5052473;28;20267;-71
2023/03/20 08:15:12;;;;;;;12.57;11.23;;;;;;;20.42;34.52;99842.38;5052009;28;20615;-70
2023/03/20 08:17:42;;;;;;;18.10;11.60;;;;;;;20.39;34.70;99838.25;5052260;28;20254;-70
2023/03/20 08:20:10;;;;;;;37.10;13.63;;;;;;;20.13;34.50;99832.78;5052104;28;20195;-70
2023/03/20 08:22:37;;;;;;;23.77;10.77;;;;;;;20.29;35.83;99842.72;5052145;28;20193;-75
2023/03/20 08:25:05;;;;;;;44.07;14.97;;;;;;;20.18;35.26;99846.34;5033297;28;20224;-69
2023/03/20 08:27:33;;;;;;;38.50;12.43;;;;;;;19.99;36.57;99842.28;5031867;28;20186;-68
2023/03/20 08:29:59;;;;;;;20.80;11.07;;;;;;;20.47;39.79;99834.31;5032814;28;20239;-69
2023/03/20 08:32:26;;;;;;;27.53;13.70;;;;;;;20.67;33.89;99843.47;5046175;28;20193;-71
2023/03/20 08:34:54;;;;;;;24.17;14.57;;;;;;;20.39;34.24;99849.03;5032322;28;20247;-65
2023/03/20 08:37:21;;;;;;;24.53;12.87;;;;;;;20.73;37.82;99841.63;5032048;28;20645;-66
2023/03/20 08:39:48;;;;;;;25.13;16.07;;;;;;;21.15;33.96;99841.84;5035770;28;20201;-67
2023/03/20 08:42:15;;;;;;;26.10;14.70;;;;;;;21.30;33.20;99844.66;5051803;28;20250;-66
2023/03/20 08:44:43;;;;;;;45.80;16.70;;;;;;;21.40;34.03;99840.16;5058178;28;20216;-65
2023/03/20 08:47:10;;;;;;;24.10;14.50;;;;;;;21.38;35.88;99831.50;5051951;28;20195;-65
2023/03/20 08:49:37;;;;;;;27.03;14.97;;;;;;;21.83;34.26;99834.59;5050234;28;20209;-65
2023/03/20 08:52:04;;;;;;;30.17;14.77;;;;;;;21.97;32.36;99830.34;5052036;28;20189;-65
2023/03/20 08:54:32;;;;;;;19.13;13.83;;;;;;;22.10;34.51;99824.50;5051770;28;20659;-66
2023/03/20 08:56:59;;;;;;;21.93;13.53;;;;;;;22.44;33.30;99820.31;5052077;28;20192;-66
2023/03/20 08:59:25;;;;;;;28.20;15.00;;;;;;;22.75;31.88;99832.88;5048355;28;20279;-65
2023/03/20 09:01:54;;;;;;;17.27;12.63;;;;;;;22.67;32.13;99825.28;5051731;28;20189;-64
2023/03/20 09:04:20;;;;;;;19.50;14.67;;;;;;;22.55;30.46;99830.13;5050667;28;20239;-66
2023/03/20 09:06:47;;;;;;;34.97;14.77;;;;;;;22.71;31.83;99820.97;5039413;28;20184;-66
2023/03/20 09:09:17;;;;;;;21.63;15.90;;;;;;;22.64;30.33;99815.00;5049876;28;20278;-66
2023/03/20 09:11:44;;;;;;;32.60;15.43;;;;;;;22.10;31.09;99813.66;5034720;28;20248;-64
2023/03/20 09:14:11;;;;;;;21.80;13.63;;;;;;;21.76;34.52;99806.94;5051376;28;20228;-64
2023/03/20 09:16:38;;;;;;;36.27;15.80;;;;;;;21.35;32.63;99804.19;5052073;28;20531;-65
2023/03/20 09:19:06;;;;;;;32.43;13.93;;;;;;;21.50;34.32;99797.00;5051826;28;20188;-64
2023/03/20 09:21:33;;;;;;;26.97;15.43;;;;;;;21.46;32.66;99797.78;5051422;28;20280;-67
2023/03/20 09:23:59;;;;;;;19.47;14.57;;;;;;;21.02;33.57;99799.84;5051763;28;20193;-66
2023/03/20 09:26:26;;;;;;;25.10;15.20;;;;;;;20.97;33.98;99797.09;5047662;28;20208;-66
2023/03/20 09:28:53;;;;;;;22.43;14.70;;;;;;;21.38;35.64;99798.25;5051324;28;20703;-65
2023/03/20 09:31:19;;;;;;;16.30;13.03;;;;;;;21.77;33.54;99796.97;5033820;28;20240;-66
2023/03/20 09:33:47;;;;;;;17.80;12.50;;;;;;;22.24;33.06;99793.16;5031883;28;20193;-65
2023/03/20 09:36:15;;;;;;;19.37;12.90;;;;;;;22.11;31.21;99798.22;5031925;28;20248;-65
2023/03/20 09:38:42;;;;;;;15.80;11.10;;;;;;;21.83;35.28;99785.91;5031937;28;20235;-65
2023/03/20 09:41:17;;;;;;;17.10;12.43;;;;;;;22.21;33.38;99782.84;5045455;28;20565;-65
2023/03/20 09:43:56;;;;;;;18.30;13.27;;;;;;;22.45;31.32;99778.59;5051881;28;20190;-65
2023/03/20 09:46:35;;;;;;;23.00;11.50;;;;;;;22.65;34.05;99773.28;5051866;28;20187;-67
2023/03/20 09:49:10;;;;;;;15.97;10.27;;;;;;;22.94;35.50;99766.28;5052273;28;20278;-65
2023/03/20 09:51:44;;;;;;;20.77;12.73;;;;;;;23.01;31.32;99750.59;5054697;28;20554;-66
2023/03/20 09:54:21;;;;;;;18.60;12.20;;;;;;;23.34;31.95;99768.22;5055931;28;20189;-66
2023/03/20 09:56:50;;;;;;;18.83;13.07;;;;;;;23.58;32.51;99761.97;5054517;28;20590;-66
2023/03/20 09:59:19;;;;;;;15.27;12.03;;;;;;;23.82;32.24;99757.59;5052612;28;20228;-65
2023/03/20 10:01:50;;;;;;;20.47;12.20;;;;;;;24.02;31.30;99757.53;5035843;28;20195;-66
2023/03/20 10:04:17;;;;;;;18.57;12.07;;;;;;;23.98;31.84;99748.31;5035283;28;20187;-66
2023/03/20 10:06:45;;;;;;;15.83;11.63;;;;;;;24.12;30.95;99749.38;5035808;28;20318;-65
2023/03/20 10:09:17;;;;;;;12.80;11.50;;;;;;;23.74;29.29;99747.28;5034821;28;20261;-65
2023/03/20 10:12:20;;;;;;;19.37;12.00;;;;;;;23.85;30.96;99743.44;5051810;28;20721;-66
2023/03/20 10:14:58;;;;;;;19.23;10.13;;;;;;;23.94;28.68;99743.75;5052493;28;20224;-65
2023/03/20 10:17:37;;;;;;;12.20;10.10;;;;;;;24.14;31.92;99728.16;5054365;28;20233;-67
2023/03/20 10:20:13;;;;;;;15.00;11.20;;;;;;;24.14;30.41;99733.59;5053597;28;20257;-68
2023/03/20 10:22:45;;;;;;;15.23;12.50;;;;;;;23.99;29.59;99730.97;5053184;28;20630;-66
2023/03/20 10:25:23;;;;;;;18.27;11.57;;;;;;;23.63;30.15;99726.69;5055305;28;20201;-66
2023/03/20 10:27:52;;;;;;;13.60;10.73;;;;;;;22.57;31.08;99729.66;5055266;28;20247;-65
2023/03/20 10:30:32;;;;;;;12.83;10.60;;;;;;;22.66;31.09;99714.53;5054156;28;20310;-66
2023/03/20 10:33:12;;;;;;;17.60;10.50;;;;;;;22.24;31.87;99716.53;5055133;28;20544;-67
2023/03/20 10:35:45;;;;;;;11.63;9.90;;;;;;;22.36;31.76;99709.81;5054113;28;20181;-67
2023/03/20 10:38:31;;;;;;;10.37;9.20;;;;;;;22.34;31.42;99703.84;5054568;28;20181;-65
2023/03/20 10:40:59;;;;;;;25.27;9.53;;;;;;;22.53;30.78;99694.19;5054285;28;20246;-66
2023/03/20 10:46:51;;;;;;;9.03;8.00;;;;;;;22.66;31.10;99674.69;5054572;28;20218;-67
2023/03/20 10:49:26;;;;;;;8.63;7.93;;;;;;;22.76;30.80;99677.44;5054330;28;20211;-67
2023/03/20 10:51:58;;;;;;;8.80;7.90;;;;;;;22.84;30.82;99662.53;5053756;28;20306;-67
2023/03/20 10:54:30;;;;;;;10.57;9.53;;;;;;;22.98;31.74;99663.59;5054457;28;20180;-71
2023/03/20 10:57:00;;;;;;;15.10;12.47;;;;;;;23.21;36.91;99642.19;5053847;28;20181;-69
2023/03/20 10:59:29;;;;;;;10.10;9.20;;;;;;;23.31;32.03;99658.44;5053680;28;20685;-70
2023/03/20 11:01:56;;;;;;;8.63;7.77;;;;;;;22.97;33.12;99657.38;5052512;28;20288;-70
2023/03/20 11:04:22;;;;;;;8.47;7.57;;;;;;;23.41;32.29;99652.19;5053843;28;20252;-70
2023/03/20 11:06:58;;;;;;;7.87;7.07;;;;;;;23.37;31.30;99641.09;5053830;28;20189;-68
2023/03/20 11:09:28;;;;;;;10.27;7.00;;;;;;;23.19;31.87;99636.19;5054584;28;20213;-67
2023/03/20 11:11:58;;;;;;;8.13;7.40;;;;;;;23.44;34.58;99625.31;5053624;28;20192;-69
2023/03/20 11:14:26;;;;;;;7.23;6.63;;;;;;;23.58;35.74;99626.38;5054096;28;20189;-69
2023/03/20 11:16:55;;;;;;;9.97;7.07;;;;;;;23.73;31.17;99631.72;5052982;28;20196;-70
2023/03/20 11:19:24;;;;;;;7.47;6.50;;;;;;;23.81;35.34;99619.47;5053444;28;20204;-70
2023/03/20 11:21:55;;;;;;;7.27;6.80;;;;;;;23.69;30.04;99622.50;5053076;28;20676;-68
2023/03/20 11:24:35;;;;;;;7.70;6.90;;;;;;;23.75;32.57;99609.72;5053202;28;20729;-69
2023/03/20 11:27:07;;;;;;;9.47;6.57;;;;;;;23.89;32.96;99600.69;5052979;28;20315;-71
2023/03/20 11:29:35;;;;;;;11.13;6.17;;;;;;;23.64;31.28;99598.13;5054107;28;20225;-70
2023/03/20 11:32:07;;;;;;;11.40;5.47;;;;;;;23.68;30.81;99599.19;5053795;28;20189;-67
2023/03/20 11:34:39;;;;;;;6.53;6.13;;;;;;;23.49;29.11;99554.78;5053465;28;20189;-67
2023/03/20 11:37:20;;;;;;;8.60;6.73;;;;;;;23.78;28.77;99590.19;5053020;28;20553;-67
2023/03/20 11:39:57;;;;;;;9.47;6.90;;;;;;;23.65;29.73;99582.66;5052742;28;20259;-67
2023/03/20 11:42:26;;;;;;;8.87;6.97;;;;;;;23.56;29.50;99574.28;5053342;28;20632;-67